首页
METAR-TAF:

METAR-TAF

机场 :

库利亚坎, 墨西哥

纬度: 24-49N, 经度: 107-24W, 海拔: 39米

当前天气观测

该预报发布于1小时和16分钟前的14:49 UTC
静风
温度 29°C
湿度 70%
气压 1012 hPa
能見度: 16.1公里
散云层高于1500英尺
多云层高于8000英尺
多云层高于23000英尺

METAR: MMCL 241449Z 00000KT 10SM SCT015 BKN080 BKN230 29/23 A2988 RMK SLP113 964 8/538

时间: 10:05 (16:05 UTC)

预报

该预报发布于11小时和3分钟前的05:02 UTC
预报有效从24日的 06点(UTC)到 25日的 06点(UTC)
风速5节,风向西转西南
能見度: 10公里
多云层高于2000英尺
阴天层高于10000英尺
短暂存在
从 24日的 08点(UTC)到 24日的 12点(UTC)
能見度: 6.4公里
多云层高于1500英尺
小雨
从 24日的 1200点(UTC)
风速5节,风向西南
能見度: 6.4公里
多云层高于1500英尺
成为
从 24日的 13点(UTC)到 24日的 15点(UTC)
能見度: 10公里
散云层高于1500英尺
多云层高于3000英尺
多云层高于10000英尺
从 24日的 1900点(UTC)
风速15节,风向西转西南
能見度: 10公里
多云层高于3000英尺
多云层高于10000英尺
几率 40%
从 24日的 20点(UTC)到 24日的 24点(UTC)
能見度: 8.0公里
多云层高于2000英尺, 积雨云.
小雨
从 25日的 0300点(UTC)
风速5节,风向西转西南
能見度: 8.0公里
多云层高于2000英尺
附近有, 雨
短暂存在
从 25日的 03点(UTC)到 25日的 06点(UTC)
能見度: 6.4公里
多云层高于2000英尺, 积雨云.
雷暴, 雨,

TAF: MMCL 240502Z 2406/2506 24005KT P6SM BKN020 OVC100 TEMPO 2408/2412 4SM -RA BKN015 FM241200 22005KT 4SM HZ BKN015 BECMG 2413/2415 P6SM SCT015 BKN030 BKN100 FM241900 24015KT P6SM BKN030 BKN100 PROB40 2420/2424 5SM -RA BKN020CB FM250300 24005KT 5SM VCRA BKN020 TEMPO 2503/2506 4SM TSRA BKN020CB

超过4000个机场的气象观测和天气预报(METAR&TAF报告)。

可查询的气象台以黄色和红色小点在地图上表示。

将鼠标移到小点上方,可查看气象台名称。

然后点击查看天气观测和预报。

如需切换地图:点击带黑十字的绿色按钮放大地图;点击带横线的绿色按钮缩小地图;或者点击绿色箭头查看邻近地区的地图。


METAR-TAF: